Time;durP1;ratioP1;P1;durP2;ratioP2;P2;SDS_P1;SDS_P2;PMS_P1;PMS_P2;Temp;Humidity;BMP_temperature;BMP_pressure;BME280_temperature;BME280_humidity;BME280_pressure;Samples;Min_cycle;Max_cycle;Signal;HPM_P1;HPM_P2
2023/01/26 00:02:08;;;;;;;;;;;;;;;;;;4988708;28;19930;-55
2023/01/26 00:04:34;;;;;;;;;;;;;;;;;;4990847;28;19925;-54
2023/01/26 00:07:00;;;;;;;;;;;;;;;;;;4990311;28;19933;-56
2023/01/26 00:09:26;;;;;;;;;;;;;;;;;;4990112;28;19926;-55
2023/01/26 00:11:52;;;;;;;;;;;;;;;;;;4990182;28;20408;-57
2023/01/26 00:14:18;;;;;;;;;;;;;;;;;;4990239;28;20012;-55
2023/01/26 00:16:44;;;;;;;;;;;;;;;;;;4989356;28;19979;-57
2023/01/26 00:19:10;;;;;;;;;;;;;;;;;;4989992;28;20580;-57
2023/01/26 00:21:36;;;;;;;;;;;;;;;;;;4989846;28;20356;-56
2023/01/26 00:24:03;;;;;;;;;;;;;;;;;;4990403;28;20020;-58
2023/01/26 00:26:29;;;;;;;;;;;;;;;;;;4990018;28;20540;-58
2023/01/26 00:28:55;;;;;;;;;;;;;;;;;;4989602;28;19932;-56
2023/01/26 00:31:21;;;;;;;;;;;;;;;;;;4989270;28;19925;-58
2023/01/26 00:33:47;;;;;;;;;;;;;;;;;;4989983;28;19937;-58
2023/01/26 00:36:13;;;;;;;;;;;;;;;;;;4988889;28;19922;-57
2023/01/26 00:38:39;;;;;;;;;;;;;;;;;;4990349;28;19936;-58
2023/01/26 00:41:05;;;;;;;;;;;;;;;;;;4989892;28;20254;-58
2023/01/26 00:43:31;;;;;;;;;;;;;;;;;;4989109;28;19926;-57
2023/01/26 00:45:57;;;;;;;;;;;;;;;;;;4989008;28;19930;-58
2023/01/26 00:48:23;;;;;;;;;;;;;;;;;;4989261;28;19977;-57
2023/01/26 00:50:49;;;;;;;;;;;;;;;;;;4989729;28;19933;-55
2023/01/26 00:53:15;;;;;;;;;;;;;;;;;;4989308;28;20043;-56
2023/01/26 00:55:41;;;;;;;;;;;;;;;;;;4989424;28;19932;-58
2023/01/26 00:58:07;;;;;;;;;;;;;;;;;;4989307;28;19926;-56
2023/01/26 01:00:33;;;;;;;;;;;;;;;;;;4989065;28;19926;-55
2023/01/26 01:02:59;;;;;;;;;;;;;;;;;;4971344;28;20459;-57
2023/01/26 01:05:25;;;;;;;;;;;;;;;;;;4989223;28;20008;-58
2023/01/26 01:07:51;;;;;;;;;;;;;;;;;;4989385;28;19926;-55
2023/01/26 01:10:17;;;;;;;;;;;;;;;;;;4989432;28;19926;-53
2023/01/26 01:12:43;;;;;;;;;;;;;;;;;;4988914;28;19926;-57
2023/01/26 01:15:09;;;;;;;;;;;;;;;;;;4988121;28;19981;-58
2023/01/26 01:17:36;;;;;;;;;;;;;;;;;;4989835;28;19925;-58
2023/01/26 01:20:02;;;;;;;;;;;;;;;;;;4989438;28;20373;-57
2023/01/26 01:22:28;;;;;;;;;;;;;;;;;;4988420;28;19926;-57
2023/01/26 01:24:54;;;;;;;;;;;;;;;;;;4988923;28;19932;-58
2023/01/26 01:27:20;;;;;;;;;;;;;;;;;;4988800;28;19926;-58
2023/01/26 01:29:46;;;;;;;;;;;;;;;;;;4989210;28;19926;-57
2023/01/26 01:32:12;;;;;;;;;;;;;;;;;;4988022;28;20392;-58
2023/01/26 01:34:38;;;;;;;;;;;;;;;;;;4988678;28;19933;-57
2023/01/26 01:37:04;;;;;;;;;;;;;;;;;;4989301;28;19926;-55
2023/01/26 01:39:30;;;;;;;;;;;;;;;;;;4971121;28;19953;-57
2023/01/26 01:41:56;;;;;;;;;;;;;;;;;;4988418;28;19942;-55
2023/01/26 01:44:22;;;;;;;;;;;;;;;;;;4987911;28;19941;-57
2023/01/26 01:46:48;;;;;;;;;;;;;;;;;;4988024;28;19929;-57
2023/01/26 01:49:14;;;;;;;;;;;;;;;;;;4988042;28;20386;-58
2023/01/26 01:51:40;;;;;;;;;;;;;;;;;;4988407;28;20017;-55
2023/01/26 01:54:06;;;;;;;;;;;;;;;;;;4988970;28;20021;-58
2023/01/26 01:56:32;;;;;;;;;;;;;;;;;;4988408;28;19921;-58
2023/01/26 01:58:58;;;;;;;;;;;;;;;;;;4988431;28;19932;-57
2023/01/26 02:01:24;;;;;;;;;;;;;;;;;;4987289;28;19940;-57
2023/01/26 02:03:50;;;;;;;;;;;;;;;;;;4987670;28;19937;-52
2023/01/26 02:06:16;;;;;;;;;;;;;;;;;;5064364;23;20379;-56
2023/01/26 02:08:42;;;;;;;;;;;;;;;;;;5004498;28;20008;-53
2023/01/26 02:11:08;;;;;;;;;;;;;;;;;;5007266;28;19933;-58
2023/01/26 02:13:34;;;;;;;;;;;;;;;;;;5008294;28;19961;-56
2023/01/26 02:16:00;;;;;;;;;;;;;;;;;;5007423;28;19928;-58
2023/01/26 02:18:26;;;;;;;;;;;;;;;;;;5007439;28;20442;-58
2023/01/26 02:20:52;;;;;;;;;;;;;;;;;;5007196;28;20011;-56
2023/01/26 02:23:19;;;;;;;;;;;;;;;;;;5006612;28;19925;-57
2023/01/26 02:25:44;;;;;;;;;;;;;;;;;;5007905;28;19932;-54
2023/01/26 02:28:11;;;;;;;;;;;;;;;;;;5007498;28;19921;-57
2023/01/26 02:30:37;;;;;;;;;;;;;;;;;;5007116;28;19932;-56
2023/01/26 02:33:03;;;;;;;;;;;;;;;;;;5007844;28;19926;-58
2023/01/26 02:35:29;;;;;;;;;;;;;;;;;;5007028;28;19925;-57
2023/01/26 02:37:55;;;;;;;;;;;;;;;;;;5007648;28;19929;-57
2023/01/26 02:40:21;;;;;;;;;;;;;;;;;;5006568;28;19925;-57
2023/01/26 02:42:47;;;;;;;;;;;;;;;;;;5007517;28;19932;-58
2023/01/26 02:45:13;;;;;;;;;;;;;;;;;;5006838;28;20270;-57
2023/01/26 02:47:39;;;;;;;;;;;;;;;;;;5007745;28;19932;-58
2023/01/26 02:50:05;;;;;;;;;;;;;;;;;;5007714;28;20279;-57
2023/01/26 02:52:31;;;;;;;;;;;;;;;;;;5007157;28;20433;-51
2023/01/26 02:57:41;;;;;;;;;;;;;;;;;;5007087;28;19933;-58
2023/01/26 03:00:07;;;;;;;;;;;;;;;;;;5006232;28;19935;-57
2023/01/26 03:02:33;;;;;;;;;;;;;;;;;;5007237;28;19968;-56
2023/01/26 03:05:00;;;;;;;;;;;;;;;;;;5006976;28;19969;-58
2023/01/26 03:07:26;;;;;;;;;;;;;;;;;;5006628;28;19926;-56
2023/01/26 03:09:52;;;;;;;;;;;;;;;;;;5007029;28;20298;-54
2023/01/26 03:12:18;;;;;;;;;;;;;;;;;;5007170;28;19926;-58
2023/01/26 03:14:44;;;;;;;;;;;;;;;;;;5006334;28;20008;-56
2023/01/26 03:17:10;;;;;;;;;;;;;;;;;;5006418;28;20462;-57
2023/01/26 03:27:49;;;;;;;;;;;;;;;;;;4987252;28;19930;-58
2023/01/26 03:30:15;;;;;;;;;;;;;;;;;;4985888;28;20625;-58
2023/01/26 03:32:41;;;;;;;;;;;;;;;;;;4987159;28;19926;-57
2023/01/26 03:35:14;;;;;;;;;;;;;;;;;;4989205;28;19922;-58
2023/01/26 03:37:42;;;;;;;;;;;;;;;;;;4990837;28;19976;-58
2023/01/26 03:56:36;;;;;;;;;;;;;;;;;;4990898;28;19926;-55
2023/01/26 03:59:08;;;;;;;;;;;;;;;;;;4990351;28;19980;-58
2023/01/26 04:01:34;;;;;;;;;;;;;;;;;;4990425;28;20012;-58
2023/01/26 04:09:29;;;;;;;;;;;;;;;;;;4990701;28;20057;-58
2023/01/26 04:11:55;;;;;;;;;;;;;;;;;;4990436;28;20031;-57
2023/01/26 04:22:39;;;;;;;;;;;;;;;;;;4990363;28;19930;-57
2023/01/26 04:25:05;;;;;;;;;;;;;;;;;;4990288;28;19929;-56
2023/01/26 04:27:33;;;;;;;;;;;;;;;;;;4990282;28;19949;-58
2023/01/26 04:29:59;;;;;;;;;;;;;;;;;;4989175;28;19933;-58
2023/01/26 04:32:26;;;;;;;;;;;;;;;;;;4989832;28;20287;-57
2023/01/26 04:34:52;;;;;;;;;;;;;;;;;;4990214;28;19958;-57
2023/01/26 04:37:18;;;;;;;;;;;;;;;;;;4989203;28;19960;-55
2023/01/26 04:39:44;;;;;;;;;;;;;;;;;;4988044;28;20580;-58
2023/01/26 04:42:10;;;;;;;;;;;;;;;;;;4989946;28;19977;-57
2023/01/26 04:44:36;;;;;;;;;;;;;;;;;;4989270;28;19925;-58
2023/01/26 04:47:02;;;;;;;;;;;;;;;;;;4989281;28;20383;-57
2023/01/26 04:49:28;;;;;;;;;;;;;;;;;;4989625;28;19934;-57
2023/01/26 04:51:54;;;;;;;;;;;;;;;;;;4989255;28;19932;-58
2023/01/26 04:54:20;;;;;;;;;;;;;;;;;;4989419;28;19987;-57
2023/01/26 04:56:46;;;;;;;;;;;;;;;;;;4989635;28;20000;-57
2023/01/26 04:59:12;;;;;;;;;;;;;;;;;;4989002;28;19926;-58
2023/01/26 05:01:38;;;;;;;;;;;;;;;;;;4989072;28;19925;-58
2023/01/26 05:04:04;;;;;;;;;;;;;;;;;;4989993;28;19933;-57
2023/01/26 05:06:30;;;;;;;;;;;;;;;;;;4989110;28;20300;-58
2023/01/26 05:08:56;;;;;;;;;;;;;;;;;;4989463;28;20398;-55
2023/01/26 05:11:22;;;;;;;;;;;;;;;;;;4989095;28;19929;-57
2023/01/26 05:13:48;;;;;;;;;;;;;;;;;;4989419;28;19933;-57
2023/01/26 05:16:14;;;;;;;;;;;;;;;;;;4988428;28;20005;-58
2023/01/26 05:18:40;;;;;;;;;;;;;;;;;;4989596;28;19926;-54
2023/01/26 05:21:06;;;;;;;;;;;;;;;;;;4989148;28;19926;-58
2023/01/26 05:23:32;;;;;;;;;;;;;;;;;;4989754;28;19932;-58
2023/01/26 05:25:58;;;;;;;;;;;;;;;;;;4989238;28;19926;-57
2023/01/26 05:28:24;;;;;;;;;;;;;;;;;;4988779;28;19926;-58
2023/01/26 05:30:50;;;;;;;;;;;;;;;;;;4987920;28;20403;-56
2023/01/26 05:33:20;;;;;;;;;;;;;;;;;;4988837;28;19932;-56
2023/01/26 05:35:46;;;;;;;;;;;;;;;;;;4988570;28;19987;-56
2023/01/26 05:38:12;;;;;;;;;;;;;;;;;;4988762;28;20008;-57
2023/01/26 05:40:38;;;;;;;;;;;;;;;;;;4988328;28;20397;-58
2023/01/26 05:43:05;;;;;;;;;;;;;;;;;;4988669;28;19929;-50
2023/01/26 05:45:31;;;;;;;;;;;;;;;;;;4987846;28;20296;-58
2023/01/26 05:47:57;;;;;;;;;;;;;;;;;;4988395;28;20709;-58
2023/01/26 05:50:23;;;;;;;;;;;;;;;;;;4988227;28;19988;-56
2023/01/26 05:52:49;;;;;;;;;;;;;;;;;;4988768;28;19973;-57
2023/01/26 05:55:15;;;;;;;;;;;;;;;;;;4988067;28;19933;-57
2023/01/26 05:57:41;;;;;;;;;;;;;;;;;;4988153;28;20065;-58
2023/01/26 06:00:07;;;;;;;;;;;;;;;;;;4986778;28;19976;-57
2023/01/26 06:02:33;;;;;;;;;;;;;;;;;;4988307;28;19922;-58
2023/01/26 06:04:59;;;;;;;;;;;;;;;;;;4988230;28;19926;-52
2023/01/26 06:07:25;;;;;;;;;;;;;;;;;;4987948;28;19926;-57
2023/01/26 06:09:51;;;;;;;;;;;;;;;;;;4986981;28;20467;-57
2023/01/26 06:12:17;;;;;;;;;;;;;;;;;;4985539;28;19934;-58
2023/01/26 06:14:43;;;;;;;;;;;;;;;;;;4988037;28;19929;-58
2023/01/26 06:17:09;;;;;;;;;;;;;;;;;;4988417;28;19930;-59
2023/01/26 06:19:36;;;;;;;;;;;;;;;;;;4988772;28;20287;-57
2023/01/26 06:22:02;;;;;;;;;;;;;;;;;;4989278;28;20306;-56
2023/01/26 06:24:28;;;;;;;;;;;;;;;;;;4987768;28;20371;-57
2023/01/26 06:26:54;;;;;;;;;;;;;;;;;;4988149;28;19921;-58
2023/01/26 06:29:20;;;;;;;;;;;;;;;;;;4987299;28;20028;-58
2023/01/26 06:31:46;;;;;;;;;;;;;;;;;;4987480;28;20102;-58
2023/01/26 06:34:12;;;;;;;;;;;;;;;;;;4974485;28;20360;-58
2023/01/26 06:36:39;;;;;;;;;;;;;;;;;;4977721;28;19925;-54
2023/01/26 06:39:05;;;;;;;;;;;;;;;;;;4988320;28;20077;-59
2023/01/26 06:41:31;;;;;;;;;;;;;;;;;;4985650;28;19938;-55
2023/01/26 06:43:57;;;;;;;;;;;;;;;;;;4984779;28;19944;-56
2023/01/26 06:46:23;;;;;;;;;;;;;;;;;;4986454;28;19926;-59
2023/01/26 06:48:49;;;;;;;;;;;;;;;;;;4987445;28;19925;-59
2023/01/26 06:51:15;;;;;;;;;;;;;;;;;;4987326;28;20268;-58
2023/01/26 06:53:41;;;;;;;;;;;;;;;;;;4987436;28;19925;-59
2023/01/26 06:56:07;;;;;;;;;;;;;;;;;;4987161;28;19922;-59
2023/01/26 06:58:33;;;;;;;;;;;;;;;;;;4987443;28;20024;-58
2023/01/26 07:00:59;;;;;;;;;;;;;;;;;;4985265;28;20037;-56
2023/01/26 07:03:25;;;;;;;;;;;;;;;;;;4986334;28;20437;-58
2023/01/26 07:05:51;;;;;;;;;;;;;;;;;;4986702;28;20419;-57
2023/01/26 07:08:17;;;;;;;;;;;;;;;;;;4986966;28;20016;-58
2023/01/26 07:10:43;;;;;;;;;;;;;;;;;;4986990;28;19925;-58
2023/01/26 07:13:09;;;;;;;;;;;;;;;;;;4987104;28;20295;-58
2023/01/26 07:15:35;;;;;;;;;;;;;;;;;;4987040;28;19929;-58
2023/01/26 07:18:01;;;;;;;;;;;;;;;;;;4986618;28;19925;-54
2023/01/26 07:20:27;;;;;;;;;;;;;;;;;;4986896;28;19926;-57
2023/01/26 07:22:54;;;;;;;;;;;;;;;;;;4986475;28;20009;-55
2023/01/26 07:25:20;;;;;;;;;;;;;;;;;;4986926;28;20029;-58
2023/01/26 07:27:46;;;;;;;;;;;;;;;;;;4987096;28;20710;-57
2023/01/26 07:30:13;;;;;;;;;;;;;;;;;;4984440;28;19988;-58
2023/01/26 07:32:39;;;;;;;;;;;;;;;;;;4987253;28;19926;-59
2023/01/26 07:35:05;;;;;;;;;;;;;;;;;;4987456;28;19930;-58
2023/01/26 07:37:31;;;;;;;;;;;;;;;;;;4987115;28;19926;-56
2023/01/26 07:39:57;;;;;;;;;;;;;;;;;;4987207;28;20000;-58
2023/01/26 07:42:23;;;;;;;;;;;;;;;;;;4986451;28;19930;-58
2023/01/26 07:44:49;;;;;;;;;;;;;;;;;;4986584;28;20311;-56
2023/01/26 07:47:15;;;;;;;;;;;;;;;;;;4986943;28;19933;-58
2023/01/26 07:49:41;;;;;;;;;;;;;;;;;;4987068;28;19933;-59
2023/01/26 07:52:08;;;;;;;;;;;;;;;;;;4986617;28;19948;-52
2023/01/26 07:54:34;;;;;;;;;;;;;;;;;;4986249;28;20364;-58
2023/01/26 07:57:00;;;;;;;;;;;;;;;;;;4987010;28;19933;-57
2023/01/26 07:59:26;;;;;;;;;;;;;;;;;;4985734;28;19929;-58
2023/01/26 08:01:52;;;;;;;;;;;;;;;;;;4986706;28;19949;-58
2023/01/26 08:04:18;;;;;;;;;;;;;;;;;;4986567;28;20579;-58
2023/01/26 08:06:44;;;;;;;;;;;;;;;;;;4986754;28;19933;-56
2023/01/26 08:09:10;;;;;;;;;;;;;;;;;;4986503;28;19930;-54
2023/01/26 08:11:36;;;;;;;;;;;;;;;;;;4987131;28;20599;-58
2023/01/26 08:14:02;;;;;;;;;;;;;;;;;;4986392;28;20383;-54
2023/01/26 08:16:28;;;;;;;;;;;;;;;;;;4986692;28;19926;-58
2023/01/26 08:18:54;;;;;;;;;;;;;;;;;;4986768;28;19979;-58
2023/01/26 08:21:20;;;;;;;;;;;;;;;;;;4986192;28;19949;-58
2023/01/26 08:23:46;;;;;;;;;;;;;;;;;;4990407;28;19926;-56
2023/01/26 08:26:12;;;;;;;;;;;;;;;;;;4990132;28;19926;-58
2023/01/26 08:28:38;;;;;;;;;;;;;;;;;;4990202;28;20413;-58
2023/01/26 08:31:04;;;;;;;;;;;;;;;;;;4989576;28;19926;-53
2023/01/26 08:33:30;;;;;;;;;;;;;;;;;;4989778;28;19926;-58
2023/01/26 08:35:56;;;;;;;;;;;;;;;;;;4989819;28;20741;-55
2023/01/26 08:38:22;;;;;;;;;;;;;;;;;;4988555;28;19934;-57
2023/01/26 08:40:48;;;;;;;;;;;;;;;;;;4989476;28;19922;-56
2023/01/26 08:43:14;;;;;;;;;;;;;;;;;;4989717;28;19926;-58
2023/01/26 08:45:40;;;;;;;;;;;;;;;;;;4988987;28;20666;-58
2023/01/26 08:48:06;;;;;;;;;;;;;;;;;;4990230;28;19922;-58
2023/01/26 08:50:32;;;;;;;;;;;;;;;;;;4989653;28;19933;-58
2023/01/26 08:52:58;;;;;;;;;;;;;;;;;;4989898;28;20303;-57
2023/01/26 08:55:24;;;;;;;;;;;;;;;;;;4989482;28;20368;-58
2023/01/26 08:57:50;;;;;;;;;;;;;;;;;;4989868;28;19952;-58
2023/01/26 09:00:16;;;;;;;;;;;;;;;;;;4988187;28;19926;-57
2023/01/26 09:02:42;;;;;;;;;;;;;;;;;;4989493;28;20362;-53
2023/01/26 09:05:08;;;;;;;;;;;;;;;;;;4989087;28;19978;-58
2023/01/26 09:07:34;;;;;;;;;;;;;;;;;;4989433;28;19973;-58
2023/01/26 09:10:00;;;;;;;;;;;;;;;;;;4989598;28;20027;-58
2023/01/26 09:12:26;;;;;;;;;;;;;;;;;;4989119;28;20383;-58
2023/01/26 09:14:52;;;;;;;;;;;;;;;;;;4988618;28;20021;-57
2023/01/26 09:17:18;;;;;;;;;;;;;;;;;;4989196;28;20016;-58
2023/01/26 09:19:44;;;;;;;;;;;;;;;;;;4988423;28;20185;-57
2023/01/26 09:22:10;;;;;;;;;;;;;;;;;;4988886;28;20306;-58
2023/01/26 09:24:36;;;;;;;;;;;;;;;;;;4989582;28;19925;-55
2023/01/26 09:27:02;;;;;;;;;;;;;;;;;;4989295;28;20025;-58
2023/01/26 09:29:28;;;;;;;;;;;;;;;;;;4987909;28;20016;-54
2023/01/26 09:31:54;;;;;;;;;;;;;;;;;;4988538;28;19925;-56
2023/01/26 09:34:21;;;;;;;;;;;;;;;;;;4988869;28;19977;-54
2023/01/26 09:36:47;;;;;;;;;;;;;;;;;;4988650;28;19980;-58
2023/01/26 09:39:12;;;;;;;;;;;;;;;;;;4987799;28;19930;-55
2023/01/26 09:41:39;;;;;;;;;;;;;;;;;;4989154;28;20264;-58
2023/01/26 09:44:05;;;;;;;;;;;;;;;;;;4988597;28;20009;-58
2023/01/26 09:46:31;;;;;;;;;;;;;;;;;;4988430;28;20008;-58
2023/01/26 09:48:57;;;;;;;;;;;;;;;;;;4989125;28;19948;-58
2023/01/26 09:51:23;;;;;;;;;;;;;;;;;;4988299;28;20273;-57
2023/01/26 09:53:49;;;;;;;;;;;;;;;;;;4986827;28;19972;-56
2023/01/26 09:56:15;;;;;;;;;;;;;;;;;;4988474;28;19926;-58
2023/01/26 09:58:42;;;;;;;;;;;;;;;;;;4987465;28;19965;-58
2023/01/26 10:01:08;;;;;;;;;;;;;;;;;;4987893;28;19941;-58
2023/01/26 10:03:34;;;;;;;;;;;;;;;;;;4988984;28;19932;-54
2023/01/26 10:06:00;;;;;;;;;;;;;;;;;;4988334;28;19926;-58
2023/01/26 10:08:26;;;;;;;;;;;;;;;;;;4988040;28;19948;-57
2023/01/26 10:10:52;;;;;;;;;;;;;;;;;;4988093;28;20012;-57
2023/01/26 10:13:18;;;;;;;;;;;;;;;;;;4988335;28;19925;-58
2023/01/26 10:15:44;;;;;;;;;;;;;;;;;;4987887;28;20320;-59
2023/01/26 10:18:10;;;;;;;;;;;;;;;;;;4987399;28;20296;-57
2023/01/26 10:20:36;;;;;;;;;;;;;;;;;;4988360;28;20400;-58
2023/01/26 10:23:02;;;;;;;;;;;;;;;;;;4988485;28;19932;-58
2023/01/26 10:25:28;;;;;;;;;;;;;;;;;;4987840;28;19926;-58
2023/01/26 10:27:54;;;;;;;;;;;;;;;;;;4988001;28;20268;-58
2023/01/26 10:30:20;;;;;;;;;;;;;;;;;;4986253;28;19925;-58
2023/01/26 10:32:46;;;;;;;;;;;;;;;;;;4987745;28;19933;-57
2023/01/26 10:35:12;;;;;;;;;;;;;;;;;;5002704;28;20407;-54
2023/01/26 10:37:38;;;;;;;;;;;;;;;;;;4987537;28;19926;-58
2023/01/26 10:40:06;;;;;;;;;;;;;;;;;;4988053;28;19926;-57
2023/01/26 10:42:32;;;;;;;;;;;;;;;;;;4987749;28;19988;-56
2023/01/26 10:44:58;;;;;;;;;;;;;;;;;;4986211;28;19926;-58
2023/01/26 10:47:24;;;;;;;;;;;;;;;;;;4987613;28;20013;-58
2023/01/26 10:49:50;;;;;;;;;;;;;;;;;;4987481;28;19926;-58
2023/01/26 10:52:17;;;;;;;;;;;;;;;;;;4987458;28;19985;-59
2023/01/26 10:54:43;;;;;;;;;;;;;;;;;;4987670;28;19930;-55
2023/01/26 10:57:09;;;;;;;;;;;;;;;;;;4986526;28;20335;-58
2023/01/26 10:59:35;;;;;;;;;;;;;;;;;;4986857;28;20430;-58
2023/01/26 11:02:01;;;;;;;;;;;;;;;;;;4987399;28;20065;-58
2023/01/26 11:04:28;;;;;;;;;;;;;;;;;;4987197;28;19929;-58
2023/01/26 11:06:54;;;;;;;;;;;;;;;;;;4987117;28;20356;-56
2023/01/26 11:09:20;;;;;;;;;;;;;;;;;;4987195;28;19926;-58
2023/01/26 11:11:46;;;;;;;;;;;;;;;;;;4987008;28;19929;-58
2023/01/26 11:14:13;;;;;;;;;;;;;;;;;;4986260;28;20012;-58
2023/01/26 11:16:39;;;;;;;;;;;;;;;;;;4986905;28;19933;-58
2023/01/26 11:19:05;;;;;;;;;;;;;;;;;;4987515;28;19949;-58
2023/01/26 11:21:31;;;;;;;;;;;;;;;;;;4986812;28;20376;-58
2023/01/26 11:23:57;;;;;;;;;;;;;;;;;;4987258;28;19929;-58
2023/01/26 11:26:23;;;;;;;;;;;;;;;;;;4986747;28;19933;-58
2023/01/26 11:28:49;;;;;;;;;;;;;;;;;;4986473;28;19926;-57
2023/01/26 11:31:15;;;;;;;;;;;;;;;;;;4987161;28;19937;-59
2023/01/26 11:33:41;;;;;;;;;;;;;;;;;;4987195;28;19932;-58
2023/01/26 11:36:07;;;;;;;;;;;;;;;;;;4986525;28;20004;-53
2023/01/26 11:38:33;;;;;;;;;;;;;;;;;;4987315;28;20009;-56
2023/01/26 11:40:59;;;;;;;;;;;;;;;;;;4986819;28;20485;-55
2023/01/26 11:43:25;;;;;;;;;;;;;;;;;;4985981;28;19926;-56
2023/01/26 11:45:51;;;;;;;;;;;;;;;;;;4986853;28;19972;-58
2023/01/26 11:48:17;;;;;;;;;;;;;;;;;;4986836;28;19957;-59
2023/01/26 11:50:43;;;;;;;;;;;;;;;;;;4986581;28;20286;-57
2023/01/26 11:53:09;;;;;;;;;;;;;;;;;;4986281;28;19936;-59
2023/01/26 11:55:35;;;;;;;;;;;;;;;;;;4978188;28;19930;-57
2023/01/26 11:58:01;;;;;;;;;;;;;;;;;;4989970;28;19933;-57
2023/01/26 12:00:27;;;;;;;;;;;;;;;;;;4989147;28;19985;-59
2023/01/26 12:02:53;;;;;;;;;;;;;;;;;;4990027;28;19926;-58
2023/01/26 12:05:19;;;;;;;;;;;;;;;;;;4989407;28;19988;-58
2023/01/26 12:07:53;;;;;;;;;;;;;;;;;;4989596;28;20400;-57
2023/01/26 12:10:19;;;;;;;;;;;;;;;;;;4989413;28;19926;-57
2023/01/26 12:12:45;;;;;;;;;;;;;;;;;;4990479;28;19926;-59
2023/01/26 12:15:11;;;;;;;;;;;;;;;;;;4988646;28;19933;-58
2023/01/26 12:17:37;;;;;;;;;;;;;;;;;;4990219;28;19926;-56
2023/01/26 12:20:03;;;;;;;;;;;;;;;;;;4990626;28;20394;-58
2023/01/26 12:22:29;;;;;;;;;;;;;;;;;;4988495;28;20379;-53
2023/01/26 12:24:55;;;;;;;;;;;;;;;;;;4989478;28;19989;-58
2023/01/26 12:27:21;;;;;;;;;;;;;;;;;;4989181;28;19926;-54
2023/01/26 12:29:47;;;;;;;;;;;;;;;;;;4985886;28;19933;-58
2023/01/26 12:32:14;;;;;;;;;;;;;;;;;;4989222;28;20299;-58
2023/01/26 12:34:40;;;;;;;;;;;;;;;;;;4989264;28;19926;-58
2023/01/26 12:37:06;;;;;;;;;;;;;;;;;;4990303;28;20029;-58
2023/01/26 12:39:32;;;;;;;;;;;;;;;;;;4989937;28;19952;-57
2023/01/26 12:41:58;;;;;;;;;;;;;;;;;;4990014;28;19925;-57
2023/01/26 12:44:24;;;;;;;;;;;;;;;;;;4987194;28;20591;-53
2023/01/26 12:46:50;;;;;;;;;;;;;;;;;;4989824;28;21011;-58
2023/01/26 12:49:16;;;;;;;;;;;;;;;;;;4989239;28;19926;-56
2023/01/26 12:51:42;;;;;;;;;;;;;;;;;;4989734;28;20185;-58
2023/01/26 12:54:08;;;;;;;;;;;;;;;;;;4988842;28;19929;-58
2023/01/26 12:56:34;;;;;;;;;;;;;;;;;;4989843;28;19981;-59
2023/01/26 12:59:00;;;;;;;;;;;;;;;;;;4988895;28;19932;-58
2023/01/26 13:01:29;;;;;;;;;;;;;;;;;;4989108;28;19922;-57
2023/01/26 13:03:55;;;;;;;;;;;;;;;;;;4989512;28;19932;-58
2023/01/26 13:06:21;;;;;;;;;;;;;;;;;;4987928;28;19980;-59
2023/01/26 13:08:47;;;;;;;;;;;;;;;;;;4988651;28;19933;-58
2023/01/26 13:11:13;;;;;;;;;;;;;;;;;;4989013;28;19933;-54
2023/01/26 13:13:39;;;;;;;;;;;;;;;;;;4988083;28;19934;-55
2023/01/26 13:16:05;;;;;;;;;;;;;;;;;;4989075;28;19937;-55
2023/01/26 13:18:31;;;;;;;;;;;;;;;;;;4988700;28;20362;-58
2023/01/26 13:20:57;;;;;;;;;;;;;;;;;;4989102;28;20382;-56
2023/01/26 13:23:23;;;;;;;;;;;;;;;;;;4987271;28;19927;-59
2023/01/26 13:25:49;;;;;;;;;;;;;;;;;;4989021;28;19926;-58
2023/01/26 13:28:15;;;;;;;;;;;;;;;;;;4986567;28;20418;-59
2023/01/26 13:30:42;;;;;;;;;;;;;;;;;;4988414;28;19926;-58
2023/01/26 13:33:08;;;;;;;;;;;;;;;;;;4988082;28;19926;-54
2023/01/26 13:35:34;;;;;;;;;;;;;;;;;;4989283;28;20552;-58
2023/01/26 13:38:00;;;;;;;;;;;;;;;;;;4988450;28;20443;-52
2023/01/26 13:40:26;;;;;;;;;;;;;;;;;;4987321;28;19984;-58
2023/01/26 13:42:52;;;;;;;;;;;;;;;;;;4989174;28;19961;-56
2023/01/26 13:45:18;;;;;;;;;;;;;;;;;;4987812;28;19973;-57
2023/01/26 13:47:44;;;;;;;;;;;;;;;;;;4988790;28;19929;-58
2023/01/26 13:50:10;;;;;;;;;;;;;;;;;;4988555;28;19953;-59
2023/01/26 13:52:36;;;;;;;;;;;;;;;;;;4988752;28;20454;-58
2023/01/26 13:55:02;;;;;;;;;;;;;;;;;;4989000;28;19926;-59
2023/01/26 13:57:28;;;;;;;;;;;;;;;;;;4988287;28;19926;-56
2023/01/26 13:59:55;;;;;;;;;;;;;;;;;;4987760;28;19944;-55
2023/01/26 14:02:22;;;;;;;;;;;;;;;;;;4988339;28;19926;-58
2023/01/26 14:04:48;;;;;;;;;;;;;;;;;;4988526;28;19926;-59
2023/01/26 14:07:15;;;;;;;;;;;;;;;;;;4987694;28;20016;-58
2023/01/26 14:09:41;;;;;;;;;;;;;;;;;;4987594;28;19933;-55
2023/01/26 14:12:07;;;;;;;;;;;;;;;;;;4974475;28;19933;-54
2023/01/26 14:14:33;;;;;;;;;;;;;;;;;;4981767;28;20297;-58
2023/01/26 14:16:59;;;;;;;;;;;;;;;;;;4973672;28;20383;-58
2023/01/26 14:19:25;;;;;;;;;;;;;;;;;;4967560;28;20302;-58
2023/01/26 14:21:51;;;;;;;;;;;;;;;;;;4983431;28;20391;-59
2023/01/26 14:24:17;;;;;;;;;;;;;;;;;;4987783;28;19949;-59
2023/01/26 14:26:43;;;;;;;;;;;;;;;;;;4988098;28;19926;-52
2023/01/26 14:29:09;;;;;;;;;;;;;;;;;;4986845;28;19984;-58
2023/01/26 14:31:35;;;;;;;;;;;;;;;;;;4987682;28;19929;-56
2023/01/26 14:34:01;;;;;;;;;;;;;;;;;;4988675;28;19937;-58
2023/01/26 14:36:27;;;;;;;;;;;;;;;;;;4988311;28;20641;-58
2023/01/26 14:38:55;;;;;;;;;;;;;;;;;;4981596;28;19940;-58
2023/01/26 14:41:23;;;;;;;;;;;;;;;;;;4977175;28;19932;-58
2023/01/26 14:43:49;;;;;;;;;;;;;;;;;;4985653;28;20371;-56
2023/01/26 14:46:15;;;;;;;;;;;;;;;;;;4984037;28;20431;-55
2023/01/26 14:48:41;;;;;;;;;;;;;;;;;;4985889;28;19921;-55
2023/01/26 14:51:07;;;;;;;;;;;;;;;;;;4985933;28;19977;-58
2023/01/26 14:53:33;;;;;;;;;;;;;;;;;;4985565;28;19929;-58
2023/01/26 14:55:59;;;;;;;;;;;;;;;;;;4970799;28;20033;-58
2023/01/26 14:58:25;;;;;;;;;;;;;;;;;;4970893;28;19932;-58
2023/01/26 15:00:51;;;;;;;;;;;;;;;;;;4986176;28;20008;-58
2023/01/26 15:03:17;;;;;;;;;;;;;;;;;;4985796;28;19971;-58
2023/01/26 15:05:43;;;;;;;;;;;;;;;;;;4986301;28;19926;-58
2023/01/26 15:08:09;;;;;;;;;;;;;;;;;;4984818;28;19937;-57
2023/01/26 15:10:35;;;;;;;;;;;;;;;;;;4983985;28;19948;-55
2023/01/26 15:13:01;;;;;;;;;;;;;;;;;;4985727;28;19929;-58
2023/01/26 15:15:28;;;;;;;;;;;;;;;;;;4986870;28;19929;-57
2023/01/26 15:17:54;;;;;;;;;;;;;;;;;;4986087;28;20020;-59
2023/01/26 15:20:20;;;;;;;;;;;;;;;;;;4983078;28;20443;-59
2023/01/26 15:22:46;;;;;;;;;;;;;;;;;;4981888;28;20327;-59
2023/01/26 15:25:12;;;;;;;;;;;;;;;;;;4984337;28;19926;-58
2023/01/26 15:27:38;;;;;;;;;;;;;;;;;;4983775;28;20007;-58
2023/01/26 15:30:05;;;;;;;;;;;;;;;;;;4984400;28;20020;-57
2023/01/26 15:32:31;;;;;;;;;;;;;;;;;;4987567;28;20388;-57
2023/01/26 15:34:57;;;;;;;;;;;;;;;;;;4988409;28;19976;-58
2023/01/26 15:37:23;;;;;;;;;;;;;;;;;;4987416;28;19930;-56
2023/01/26 15:39:49;;;;;;;;;;;;;;;;;;4988539;28;20726;-58
2023/01/26 15:42:15;;;;;;;;;;;;;;;;;;4987110;28;19969;-58
2023/01/26 15:44:41;;;;;;;;;;;;;;;;;;4987021;28;19929;-55
2023/01/26 15:47:07;;;;;;;;;;;;;;;;;;4986895;28;19981;-58
2023/01/26 15:58:45;;;;;;;;;;;;;;;;;;4990259;28;19921;-59
2023/01/26 16:03:53;;;;;;;;;;;;;;;;;;4991601;28;19929;-58
2023/01/26 16:06:19;;;;;;;;;;;;;;;;;;4985999;28;20064;-58
2023/01/26 16:08:45;;;;;;;;;;;;;;;;;;4989604;28;20044;-57
2023/01/26 16:11:11;;;;;;;;;;;;;;;;;;4991329;28;20001;-58
2023/01/26 16:13:38;;;;;;;;;;;;;;;;;;4989467;28;19929;-57
2023/01/26 16:16:05;;;;;;;;;;;;;;;;;;4989297;28;19934;-57
2023/01/26 16:18:30;;;;;;;;;;;;;;;;;;4988699;28;20016;-57
2023/01/26 16:27:03;;;;;;;;;;;;;;;;;;4980014;28;19972;-57
2023/01/26 16:29:30;;;;;;;;;;;;;;;;;;4984715;28;19930;-55
2023/01/26 16:31:56;;;;;;;;;;;;;;;;;;4979145;28;20036;-57
2023/01/26 16:34:22;;;;;;;;;;;;;;;;;;4984277;28;19972;-56
2023/01/26 16:36:48;;;;;;;;;;;;;;;;;;4968499;28;20340;-57
2023/01/26 16:39:14;;;;;;;;;;;;;;;;;;4973947;28;20285;-56
2023/01/26 16:41:40;;;;;;;;;;;;;;;;;;4972225;28;19934;-56
2023/01/26 16:44:06;;;;;;;;;;;;;;;;;;4971634;28;19941;-55
2023/01/26 16:46:32;;;;;;;;;;;;;;;;;;4976291;28;20292;-57
2023/01/26 16:48:58;;;;;;;;;;;;;;;;;;4977611;28;20024;-57
2023/01/26 16:51:24;;;;;;;;;;;;;;;;;;4971367;28;20376;-57
2023/01/26 16:53:50;;;;;;;;;;;;;;;;;;4970401;28;20351;-57
2023/01/26 16:56:16;;;;;;;;;;;;;;;;;;4979147;28;19936;-57
2023/01/26 16:58:42;;;;;;;;;;;;;;;;;;4985229;28;19958;-57
2023/01/26 17:01:09;;;;;;;;;;;;;;;;;;4986201;28;19925;-54
2023/01/26 17:03:35;;;;;;;;;;;;;;;;;;4987355;28;20363;-57
2023/01/26 17:06:01;;;;;;;;;;;;;;;;;;4986627;28;19930;-56
2023/01/26 17:08:27;;;;;;;;;;;;;;;;;;4984529;28;20857;-57
2023/01/26 17:10:53;;;;;;;;;;;;;;;;;;4985828;28;19953;-57
2023/01/26 17:13:19;;;;;;;;;;;;;;;;;;4984980;28;20383;-57
2023/01/26 17:15:45;;;;;;;;;;;;;;;;;;4986051;28;20017;-58
2023/01/26 17:18:11;;;;;;;;;;;;;;;;;;4985956;28;20343;-55
2023/01/26 17:20:37;;;;;;;;;;;;;;;;;;4985527;28;20394;-56
2023/01/26 17:23:03;;;;;;;;;;;;;;;;;;4986282;28;19952;-57
2023/01/26 17:25:29;;;;;;;;;;;;;;;;;;4983308;28;21202;-57
2023/01/26 17:27:55;;;;;;;;;;;;;;;;;;4985205;28;20633;-56
2023/01/26 17:30:21;;;;;;;;;;;;;;;;;;4984428;28;20001;-56
2023/01/26 17:32:47;;;;;;;;;;;;;;;;;;4985635;28;19937;-58
2023/01/26 17:35:13;;;;;;;;;;;;;;;;;;4985539;28;19932;-57
2023/01/26 17:37:39;;;;;;;;;;;;;;;;;;4985636;28;19930;-57